Terminal Aerodrome Forecast
Issued by NWS

Home | Current Version | Previous Version | Text Only | Print | Product List | Glossary On
Versions: 1 2 3 4 5 6 7 8 9 10 11 12 13 14 15 16 17 18 19 20
103
FTUS43 KEAX 192322
TAFSTJ
TAF
KSTJ 192322Z 2000/2024 VRB03KT P6SM OVC008
     FM200200 VRB03KT 3SM BR OVC003
     FM200500 VRB02KT 1/2SM FG OVC001
     FM201600 09007KT 4SM BR OVC008
     FM202000 11007KT P6SM OVC010=

USA.gov is the U.S. government's official web portal to all federal, state and local government web resources and services.